ETH979 ZSSS-VVTS
Flight info
| Callsign | ETH979 |
|---|---|
| Flight time | 3h 39m |
| Altitude | 38100 |
| Route | NXD61D NXD A599 CON W6 SAREX/K0902S1220 W7 ZUH R200 BIGRO G221 SAGSU/K0902S1190 G221 BUNTA/K0900F400 G221 PCA W12 DONXO |
| Aircraft | A35K/H-SDE2E3GHIJ3J4J5LM1ORWXY/LB1D1 |
Departure
| Time | 2026-05-06 17:51 |
|---|---|
| Airport | Shanghai Hongqiao International Airport (ZSSS) |
Arrival
| Time | 2026-05-06 21:31 |
|---|---|
| Airport | Tan Son Nhat International Airport (VVTS) |
| Time | Latitude | Longitude | Altitude | Speed | Heading |
|---|---|---|---|---|---|
| 2026-05-06 17:00 | 31.19594 | 121.32550 | 25 ft | 0 kts | 267° |
| 2026-05-06 17:38 | 31.19595 | 121.32572 | 29 ft | 4 kts | 267° |
| 2026-05-06 17:38 | 31.19597 | 121.32603 | 30 ft | 4 kts | 267° |
| 2026-05-06 17:38 | 31.19598 | 121.32633 | 29 ft | 2 kts | 267° |
| 2026-05-06 17:38 | 31.19602 | 121.32659 | 30 ft | 4 kts | 225° |
| 2026-05-06 17:39 | 31.19624 | 121.32669 | 31 ft | 4 kts | 179° |
| 2026-05-06 17:39 | 31.19639 | 121.32669 | 25 ft | 0 kts | 183° |
| 2026-05-06 17:44 | 31.19618 | 121.32669 | 28 ft | 5 kts | 175° |
| 2026-05-06 17:44 | 31.19582 | 121.32697 | 29 ft | 7 kts | 126° |
| 2026-05-06 17:44 | 31.19576 | 121.32763 | 26 ft | 10 kts | 88° |
| 2026-05-06 17:44 | 31.19580 | 121.32863 | 25 ft | 14 kts | 87° |
| 2026-05-06 17:45 | 31.19585 | 121.32978 | 28 ft | 13 kts | 87° |
| 2026-05-06 17:45 | 31.19635 | 121.33058 | 29 ft | 14 kts | 11° |
| 2026-05-06 17:45 | 31.19743 | 121.33059 | 27 ft | 17 kts | 356° |
| 2026-05-06 17:45 | 31.19808 | 121.33109 | 28 ft | 10 kts | 69° |
| 2026-05-06 17:46 | 31.19819 | 121.33204 | 25 ft | 13 kts | 85° |
| 2026-05-06 17:46 | 31.19824 | 121.33325 | 25 ft | 17 kts | 90° |
| 2026-05-06 17:46 | 31.19881 | 121.33429 | 28 ft | 18 kts | 8° |
| 2026-05-06 17:46 | 31.20017 | 121.33426 | 28 ft | 21 kts | 356° |
| 2026-05-06 17:47 | 31.20178 | 121.33418 | 28 ft | 25 kts | 358° |
| 2026-05-06 17:47 | 31.20363 | 121.33408 | 30 ft | 28 kts | 356° |
| 2026-05-06 17:47 | 31.20525 | 121.33399 | 28 ft | 16 kts | 357° |
| 2026-05-06 17:47 | 31.20652 | 121.33393 | 28 ft | 20 kts | 357° |
| 2026-05-06 17:48 | 31.20808 | 121.33385 | 27 ft | 24 kts | 357° |
| 2026-05-06 17:48 | 31.20987 | 121.33376 | 28 ft | 28 kts | 357° |
| 2026-05-06 17:48 | 31.21192 | 121.33366 | 27 ft | 31 kts | 358° |
| 2026-05-06 17:48 | 31.21306 | 121.33360 | 27 ft | 1 kts | 357° |
| 2026-05-06 17:49 | 31.21315 | 121.33366 | 30 ft | 1 kts | 33° |
| 2026-05-06 17:49 | 31.21317 | 121.33374 | 29 ft | 1 kts | 69° |
| 2026-05-06 17:49 | 31.21313 | 121.33390 | 29 ft | 5 kts | 98° |
| 2026-05-06 17:49 | 31.21306 | 121.33452 | 26 ft | 10 kts | 94° |
| 2026-05-06 17:50 | 31.21286 | 121.33536 | 32 ft | 10 kts | 145° |
| 2026-05-06 17:50 | 31.21220 | 121.33551 | 29 ft | 0 kts | 177° |
| 2026-05-06 17:50 | 31.21190 | 121.33553 | 29 ft | 16 kts | 177° |
| 2026-05-06 17:50 | 31.20890 | 121.33570 | 27 ft | 82 kts | 177° |
| 2026-05-06 17:51 | 31.20039 | 121.33613 | 27 ft | 160 kts | 177° |
| 2026-05-06 17:51 | 31.18763 | 121.33680 | 466 ft | 193 kts | 176° |
| 2026-05-06 17:51 | 31.17389 | 121.33780 | 1365 ft | 204 kts | 175° |
| 2026-05-06 17:51 | 31.15958 | 121.33918 | 2229 ft | 213 kts | 175° |
| 2026-05-06 17:52 | 31.14455 | 121.34091 | 3107 ft | 220 kts | 175° |
| 2026-05-06 17:52 | 31.12912 | 121.34300 | 3977 ft | 226 kts | 175° |
| 2026-05-06 17:52 | 31.11341 | 121.34531 | 4859 ft | 230 kts | 174° |
| 2026-05-06 17:52 | 31.09724 | 121.34686 | 5669 ft | 236 kts | 180° |
| 2026-05-06 17:53 | 31.08052 | 121.34719 | 6474 ft | 245 kts | 181° |
| 2026-05-06 17:53 | 31.06286 | 121.34445 | 6878 ft | 266 kts | 198° |
| 2026-05-06 17:53 | 31.04622 | 121.33440 | 6981 ft | 272 kts | 219° |
| 2026-05-06 17:53 | 31.03429 | 121.31750 | 6985 ft | 272 kts | 243° |
| 2026-05-06 17:54 | 31.02954 | 121.29616 | 6989 ft | 274 kts | 268° |
| 2026-05-06 17:54 | 31.03323 | 121.27472 | 6987 ft | 277 kts | 293° |
| 2026-05-06 17:54 | 31.04312 | 121.25535 | 6985 ft | 278 kts | 298° |
| 2026-05-06 17:54 | 31.05007 | 121.23441 | 6990 ft | 276 kts | 283° |
| 2026-05-06 17:55 | 31.05457 | 121.21268 | 6982 ft | 274 kts | 281° |
| 2026-05-06 17:55 | 31.05856 | 121.19089 | 6992 ft | 275 kts | 281° |
| 2026-05-06 17:55 | 31.06250 | 121.16908 | 6982 ft | 275 kts | 281° |
| 2026-05-06 17:55 | 31.06638 | 121.14750 | 6979 ft | 275 kts | 281° |
| 2026-05-06 17:56 | 31.06844 | 121.12539 | 6985 ft | 275 kts | 267° |
| 2026-05-06 17:56 | 31.06520 | 121.10353 | 6980 ft | 273 kts | 255° |
| 2026-05-06 17:56 | 31.05993 | 121.08217 | 7283 ft | 275 kts | 253° |
| 2026-05-06 17:56 | 31.05441 | 121.06055 | 8141 ft | 279 kts | 253° |
| 2026-05-06 17:57 | 31.04896 | 121.03893 | 9379 ft | 278 kts | 254° |
| 2026-05-06 17:57 | 31.04354 | 121.01721 | 10446 ft | 283 kts | 254° |
| 2026-05-06 17:57 | 31.03783 | 120.99428 | 11010 ft | 306 kts | 254° |
| 2026-05-06 17:57 | 31.03166 | 120.96946 | 11491 ft | 328 kts | 253° |
| 2026-05-06 17:58 | 31.02520 | 120.94346 | 12263 ft | 337 kts | 253° |
| 2026-05-06 17:58 | 31.01873 | 120.91738 | 13251 ft | 340 kts | 253° |
| 2026-05-06 17:58 | 31.01213 | 120.89084 | 14175 ft | 342 kts | 253° |
| 2026-05-06 17:58 | 31.00548 | 120.86410 | 14955 ft | 347 kts | 253° |
| 2026-05-06 17:59 | 30.99871 | 120.83691 | 15688 ft | 352 kts | 253° |
| 2026-05-06 17:59 | 30.99183 | 120.80929 | 16439 ft | 356 kts | 253° |
| 2026-05-06 17:59 | 30.98486 | 120.78136 | 17201 ft | 361 kts | 253° |
| 2026-05-06 17:59 | 30.97780 | 120.75305 | 17955 ft | 365 kts | 253° |
| 2026-05-06 18:00 | 30.97065 | 120.72445 | 18636 ft | 369 kts | 253° |
| 2026-05-06 18:00 | 30.96345 | 120.69565 | 19318 ft | 372 kts | 253° |
| 2026-05-06 18:00 | 30.95616 | 120.66655 | 20043 ft | 375 kts | 253° |
| 2026-05-06 18:00 | 30.94881 | 120.63722 | 20787 ft | 378 kts | 253° |
| 2026-05-06 18:01 | 30.94140 | 120.60767 | 21535 ft | 382 kts | 253° |
| 2026-05-06 18:01 | 30.93392 | 120.57789 | 22264 ft | 385 kts | 253° |
| 2026-05-06 18:01 | 30.92635 | 120.54781 | 23009 ft | 389 kts | 253° |
| 2026-05-06 18:01 | 30.91879 | 120.51776 | 23707 ft | 392 kts | 253° |
| 2026-05-06 18:02 | 30.91045 | 120.48735 | 24327 ft | 396 kts | 250° |
| 2026-05-06 18:02 | 30.89870 | 120.45809 | 24947 ft | 401 kts | 241° |
| 2026-05-06 18:02 | 30.88250 | 120.43136 | 25574 ft | 408 kts | 231° |
| 2026-05-06 18:02 | 30.86205 | 120.40811 | 26188 ft | 415 kts | 221° |
| 2026-05-06 18:03 | 30.83822 | 120.38841 | 26797 ft | 422 kts | 216° |
| 2026-05-06 18:03 | 30.81309 | 120.37023 | 27355 ft | 429 kts | 214° |
| 2026-05-06 18:03 | 30.78708 | 120.35260 | 27960 ft | 434 kts | 213° |
| 2026-05-06 18:03 | 30.76102 | 120.33533 | 28556 ft | 438 kts | 213° |
| 2026-05-06 18:04 | 30.73406 | 120.31745 | 29148 ft | 443 kts | 213° |
| 2026-05-06 18:04 | 30.70756 | 120.29971 | 29702 ft | 447 kts | 213° |
| 2026-05-06 18:04 | 30.68047 | 120.28140 | 30228 ft | 451 kts | 213° |
| 2026-05-06 18:04 | 30.65325 | 120.26287 | 30708 ft | 454 kts | 213° |
| 2026-05-06 18:05 | 30.62597 | 120.24422 | 31265 ft | 456 kts | 213° |
| 2026-05-06 18:05 | 30.59842 | 120.22555 | 31746 ft | 459 kts | 210° |
| 2026-05-06 18:05 | 30.57046 | 120.20725 | 32175 ft | 463 kts | 213° |
| 2026-05-06 18:05 | 30.54293 | 120.18854 | 32604 ft | 466 kts | 214° |
| 2026-05-06 18:06 | 30.51467 | 120.16895 | 33045 ft | 468 kts | 214° |
| 2026-05-06 18:06 | 30.48694 | 120.14969 | 33450 ft | 471 kts | 214° |
| 2026-05-06 18:06 | 30.45865 | 120.13010 | 33846 ft | 474 kts | 214° |
| 2026-05-06 18:06 | 30.43022 | 120.11056 | 34278 ft | 475 kts | 215° |
| 2026-05-06 18:07 | 30.40172 | 120.09110 | 34771 ft | 473 kts | 215° |
| 2026-05-06 18:07 | 30.37338 | 120.07182 | 35288 ft | 471 kts | 215° |
| 2026-05-06 18:07 | 30.34514 | 120.05264 | 35781 ft | 469 kts | 215° |
| 2026-05-06 18:07 | 30.31706 | 120.03359 | 36257 ft | 468 kts | 216° |
| 2026-05-06 18:08 | 30.28898 | 120.01454 | 36692 ft | 467 kts | 216° |
| 2026-05-06 18:08 | 30.26095 | 119.99553 | 37150 ft | 466 kts | 216° |
| 2026-05-06 18:08 | 30.23302 | 119.97661 | 37599 ft | 465 kts | 216° |
| 2026-05-06 18:08 | 30.20544 | 119.95792 | 37939 ft | 465 kts | 216° |
| 2026-05-06 18:09 | 30.14972 | 119.92020 | 38023 ft | 463 kts | 216° |
| 2026-05-06 18:09 | 30.09404 | 119.88256 | 38020 ft | 463 kts | 216° |
| 2026-05-06 18:10 | 30.03837 | 119.84497 | 38008 ft | 463 kts | 216° |
| 2026-05-06 18:10 | 29.98303 | 119.80768 | 38025 ft | 462 kts | 216° |
| 2026-05-06 18:11 | 29.93687 | 119.77662 | 38024 ft | 461 kts | 216° |
| 2026-05-06 18:11 | 29.87209 | 119.73303 | 38027 ft | 461 kts | 216° |
| 2026-05-06 18:12 | 29.81660 | 119.69576 | 38015 ft | 461 kts | 216° |
| 2026-05-06 18:12 | 29.76349 | 119.65529 | 38031 ft | 453 kts | 225° |
| 2026-05-06 18:13 | 29.71972 | 119.60455 | 38030 ft | 448 kts | 232° |
| 2026-05-06 18:13 | 29.67818 | 119.55105 | 38031 ft | 448 kts | 233° |
| 2026-05-06 18:14 | 29.63705 | 119.49735 | 38036 ft | 447 kts | 233° |
| 2026-05-06 18:14 | 29.59554 | 119.44386 | 38030 ft | 448 kts | 232° |
| 2026-05-06 18:15 | 29.55372 | 119.39061 | 38029 ft | 448 kts | 232° |
| 2026-05-06 18:15 | 29.51182 | 119.33746 | 38028 ft | 448 kts | 232° |
| 2026-05-06 18:16 | 29.47027 | 119.28460 | 38027 ft | 448 kts | 232° |
| 2026-05-06 18:16 | 29.42847 | 119.23144 | 38012 ft | 447 kts | 232° |
| 2026-05-06 18:17 | 29.38670 | 119.17841 | 38028 ft | 447 kts | 232° |
| 2026-05-06 18:17 | 29.34494 | 119.12550 | 38027 ft | 448 kts | 232° |
| 2026-05-06 18:18 | 29.30326 | 119.07290 | 38027 ft | 448 kts | 232° |
| 2026-05-06 18:18 | 29.26141 | 119.02007 | 38029 ft | 448 kts | 232° |
| 2026-05-06 18:19 | 29.21948 | 118.96730 | 38038 ft | 448 kts | 232° |
| 2026-05-06 18:19 | 29.18462 | 118.92347 | 38029 ft | 447 kts | 232° |
| 2026-05-06 18:20 | 29.14262 | 118.87075 | 38029 ft | 447 kts | 232° |
| 2026-05-06 18:20 | 29.10068 | 118.81815 | 38027 ft | 447 kts | 232° |
| 2026-05-06 18:21 | 29.05870 | 118.76560 | 38030 ft | 447 kts | 232° |
| 2026-05-06 18:21 | 29.01675 | 118.71315 | 38023 ft | 448 kts | 232° |
| 2026-05-06 18:22 | 28.97493 | 118.66089 | 38039 ft | 449 kts | 232° |
| 2026-05-06 18:22 | 28.93273 | 118.60825 | 38027 ft | 448 kts | 232° |
| 2026-05-06 18:23 | 28.89061 | 118.55580 | 38028 ft | 448 kts | 232° |
| 2026-05-06 18:23 | 28.84849 | 118.50340 | 38020 ft | 448 kts | 232° |
| 2026-05-06 18:24 | 28.80652 | 118.45127 | 38022 ft | 449 kts | 232° |
| 2026-05-06 18:24 | 28.76418 | 118.39873 | 38020 ft | 450 kts | 232° |
| 2026-05-06 18:25 | 28.72177 | 118.34618 | 38021 ft | 450 kts | 232° |
| 2026-05-06 18:25 | 28.67938 | 118.29372 | 38016 ft | 449 kts | 232° |
| 2026-05-06 18:26 | 28.63699 | 118.24132 | 38001 ft | 449 kts | 232° |
| 2026-05-06 18:26 | 28.59452 | 118.18887 | 38005 ft | 451 kts | 232° |
| 2026-05-06 18:27 | 28.55192 | 118.13635 | 38021 ft | 451 kts | 232° |
| 2026-05-06 18:27 | 28.50959 | 118.08424 | 38008 ft | 451 kts | 232° |
| 2026-05-06 18:28 | 28.46689 | 118.03174 | 38017 ft | 451 kts | 232° |
| 2026-05-06 18:28 | 28.42423 | 117.97935 | 38005 ft | 451 kts | 232° |
| 2026-05-06 18:29 | 28.38104 | 117.92718 | 38015 ft | 454 kts | 231° |
| 2026-05-06 18:29 | 28.33711 | 117.87560 | 38026 ft | 454 kts | 231° |
| 2026-05-06 18:30 | 28.29333 | 117.82428 | 38016 ft | 454 kts | 231° |
| 2026-05-06 18:30 | 28.24934 | 117.77255 | 38025 ft | 454 kts | 231° |
| 2026-05-06 18:31 | 28.20550 | 117.72097 | 38023 ft | 454 kts | 231° |
| 2026-05-06 18:31 | 28.16169 | 117.66944 | 38032 ft | 454 kts | 231° |
| 2026-05-06 18:32 | 28.11778 | 117.61787 | 38031 ft | 454 kts | 231° |
| 2026-05-06 18:32 | 28.07392 | 117.56644 | 38018 ft | 454 kts | 231° |
| 2026-05-06 18:33 | 28.03026 | 117.51541 | 38028 ft | 454 kts | 231° |
| 2026-05-06 18:33 | 27.98632 | 117.46397 | 38032 ft | 455 kts | 231° |
| 2026-05-06 18:34 | 27.94229 | 117.41245 | 38028 ft | 455 kts | 231° |
| 2026-05-06 18:34 | 27.89827 | 117.36106 | 38040 ft | 454 kts | 231° |
| 2026-05-06 18:35 | 27.85428 | 117.30975 | 38024 ft | 455 kts | 231° |
| 2026-05-06 18:35 | 27.81046 | 117.25867 | 38038 ft | 455 kts | 231° |
| 2026-05-06 18:36 | 27.76620 | 117.20719 | 38035 ft | 457 kts | 231° |
| 2026-05-06 18:36 | 27.72181 | 117.15570 | 38037 ft | 458 kts | 231° |
| 2026-05-06 18:37 | 27.67747 | 117.10432 | 38023 ft | 456 kts | 231° |
| 2026-05-06 18:37 | 27.63312 | 117.05293 | 38025 ft | 456 kts | 231° |
| 2026-05-06 18:38 | 27.58907 | 117.00196 | 38014 ft | 456 kts | 231° |
| 2026-05-06 18:38 | 27.54474 | 116.95070 | 38012 ft | 458 kts | 231° |
| 2026-05-06 18:39 | 27.50022 | 116.89925 | 38014 ft | 458 kts | 231° |
| 2026-05-06 18:40 | 27.43400 | 116.82168 | 38010 ft | 457 kts | 231° |
| 2026-05-06 18:40 | 27.38998 | 116.77007 | 38013 ft | 456 kts | 231° |
| 2026-05-06 18:41 | 27.34595 | 116.71862 | 38004 ft | 457 kts | 231° |
| 2026-05-06 18:41 | 27.30167 | 116.66699 | 38016 ft | 458 kts | 231° |
| 2026-05-06 18:42 | 27.25741 | 116.61546 | 38005 ft | 458 kts | 231° |
| 2026-05-06 18:42 | 27.21340 | 116.56430 | 38007 ft | 458 kts | 231° |
| 2026-05-06 18:43 | 27.16956 | 116.51243 | 38028 ft | 457 kts | 232° |
| 2026-05-06 18:43 | 27.12654 | 116.45983 | 38015 ft | 458 kts | 233° |
| 2026-05-06 18:44 | 27.08337 | 116.40715 | 38016 ft | 459 kts | 232° |
| 2026-05-06 18:44 | 27.04001 | 116.35463 | 38015 ft | 459 kts | 232° |
| 2026-05-06 18:45 | 26.99655 | 116.30220 | 38009 ft | 459 kts | 232° |
| 2026-05-06 18:45 | 26.95332 | 116.25012 | 38023 ft | 459 kts | 232° |
| 2026-05-06 18:46 | 26.90980 | 116.19773 | 38020 ft | 459 kts | 232° |
| 2026-05-06 18:46 | 26.86655 | 116.14512 | 38026 ft | 459 kts | 232° |
| 2026-05-06 18:47 | 26.82334 | 116.09241 | 38020 ft | 459 kts | 232° |
| 2026-05-06 18:47 | 26.78004 | 116.03971 | 38023 ft | 459 kts | 232° |
| 2026-05-06 18:48 | 26.73699 | 115.98742 | 38023 ft | 459 kts | 232° |
| 2026-05-06 18:48 | 26.69363 | 115.93485 | 38024 ft | 460 kts | 232° |
| 2026-05-06 18:49 | 26.65010 | 115.88213 | 38016 ft | 461 kts | 232° |
| 2026-05-06 18:49 | 26.60658 | 115.82951 | 38020 ft | 461 kts | 232° |
| 2026-05-06 18:50 | 26.56307 | 115.77695 | 38023 ft | 460 kts | 232° |
| 2026-05-06 18:50 | 26.51953 | 115.72442 | 38022 ft | 461 kts | 232° |
| 2026-05-06 18:51 | 26.47595 | 115.67190 | 38021 ft | 462 kts | 232° |
| 2026-05-06 18:51 | 26.43226 | 115.61929 | 38014 ft | 462 kts | 232° |
| 2026-05-06 18:52 | 26.38849 | 115.56667 | 38026 ft | 463 kts | 232° |
| 2026-05-06 18:52 | 26.34499 | 115.51446 | 38014 ft | 463 kts | 232° |
| 2026-05-06 18:53 | 26.30116 | 115.46189 | 38021 ft | 462 kts | 232° |
| 2026-05-06 18:53 | 26.25730 | 115.40935 | 38016 ft | 463 kts | 232° |
| 2026-05-06 18:54 | 26.21338 | 115.35678 | 38018 ft | 463 kts | 231° |
| 2026-05-06 18:54 | 26.16945 | 115.30429 | 38019 ft | 464 kts | 231° |
| 2026-05-06 18:55 | 26.12537 | 115.25166 | 38017 ft | 465 kts | 231° |
| 2026-05-06 18:55 | 26.08123 | 115.19906 | 38022 ft | 465 kts | 231° |
| 2026-05-06 18:56 | 26.03736 | 115.14682 | 38022 ft | 465 kts | 231° |
| 2026-05-06 18:56 | 25.99319 | 115.09427 | 38020 ft | 465 kts | 231° |
| 2026-05-06 18:57 | 25.94901 | 115.04179 | 38018 ft | 465 kts | 231° |
| 2026-05-06 18:57 | 25.90476 | 114.98929 | 38017 ft | 465 kts | 231° |
| 2026-05-06 18:58 | 25.86050 | 114.93682 | 38016 ft | 464 kts | 231° |
| 2026-05-06 18:58 | 25.81592 | 114.88473 | 38004 ft | 467 kts | 228° |
| 2026-05-06 18:59 | 25.76573 | 114.83854 | 38018 ft | 470 kts | 223° |
| 2026-05-06 18:59 | 25.71374 | 114.79423 | 38025 ft | 471 kts | 222° |
| 2026-05-06 19:00 | 25.66187 | 114.75058 | 38023 ft | 471 kts | 222° |
| 2026-05-06 19:00 | 25.60937 | 114.70630 | 38029 ft | 471 kts | 222° |
| 2026-05-06 19:01 | 25.55723 | 114.66223 | 38026 ft | 471 kts | 222° |
| 2026-05-06 19:01 | 25.50564 | 114.61866 | 38031 ft | 469 kts | 222° |
| 2026-05-06 19:02 | 25.45379 | 114.57489 | 38030 ft | 468 kts | 222° |
| 2026-05-06 19:02 | 25.40195 | 114.53117 | 38031 ft | 468 kts | 222° |
| 2026-05-06 19:03 | 25.35006 | 114.48748 | 38036 ft | 468 kts | 222° |
| 2026-05-06 19:03 | 25.29822 | 114.44387 | 38038 ft | 468 kts | 222° |
| 2026-05-06 19:04 | 25.24642 | 114.40035 | 38038 ft | 468 kts | 222° |
| 2026-05-06 19:04 | 25.19460 | 114.35686 | 38042 ft | 468 kts | 222° |
| 2026-05-06 19:05 | 25.14269 | 114.31335 | 38039 ft | 468 kts | 222° |
| 2026-05-06 19:05 | 25.09642 | 114.28147 | 38050 ft | 477 kts | 210° |
| 2026-05-06 19:06 | 25.03259 | 114.25908 | 38049 ft | 487 kts | 198° |
| 2026-05-06 19:06 | 24.96606 | 114.24416 | 38053 ft | 489 kts | 196° |
| 2026-05-06 19:07 | 24.89919 | 114.23027 | 38057 ft | 489 kts | 196° |
| 2026-05-06 19:07 | 24.83243 | 114.21613 | 38053 ft | 489 kts | 196° |
| 2026-05-06 19:08 | 24.76570 | 114.20172 | 38053 ft | 489 kts | 197° |
| 2026-05-06 19:08 | 24.69877 | 114.18716 | 38055 ft | 489 kts | 196° |
| 2026-05-06 19:09 | 24.63189 | 114.17263 | 38060 ft | 490 kts | 196° |
| 2026-05-06 19:09 | 24.56547 | 114.15824 | 38060 ft | 490 kts | 196° |
| 2026-05-06 19:10 | 24.49867 | 114.14380 | 38055 ft | 490 kts | 196° |
| 2026-05-06 19:10 | 24.43166 | 114.12932 | 38060 ft | 491 kts | 196° |
| 2026-05-06 19:11 | 24.36509 | 114.11301 | 38058 ft | 487 kts | 203° |
| 2026-05-06 19:11 | 24.30460 | 114.08213 | 38056 ft | 478 kts | 214° |
| 2026-05-06 19:12 | 24.24759 | 114.04498 | 38046 ft | 475 kts | 217° |
| 2026-05-06 19:12 | 24.19207 | 114.00567 | 38060 ft | 475 kts | 218° |
| 2026-05-06 19:13 | 24.13661 | 113.96631 | 38062 ft | 475 kts | 217° |
| 2026-05-06 19:13 | 24.08086 | 113.92740 | 38060 ft | 475 kts | 217° |
| 2026-05-06 19:14 | 24.02505 | 113.88864 | 38063 ft | 475 kts | 217° |
| 2026-05-06 19:14 | 23.96924 | 113.84990 | 38055 ft | 475 kts | 217° |
| 2026-05-06 19:15 | 23.91366 | 113.81137 | 38057 ft | 476 kts | 217° |
| 2026-05-06 19:15 | 23.85765 | 113.77260 | 38059 ft | 476 kts | 217° |
| 2026-05-06 19:16 | 23.80162 | 113.73387 | 38053 ft | 476 kts | 217° |
| 2026-05-06 19:16 | 23.74566 | 113.69521 | 38053 ft | 476 kts | 217° |
| 2026-05-06 19:17 | 23.68973 | 113.65661 | 38048 ft | 476 kts | 217° |
| 2026-05-06 19:17 | 23.63360 | 113.61794 | 38047 ft | 477 kts | 217° |
| 2026-05-06 19:18 | 23.57322 | 113.58758 | 38050 ft | 488 kts | 201° |
| 2026-05-06 19:18 | 23.50602 | 113.57353 | 38047 ft | 494 kts | 193° |
| 2026-05-06 19:19 | 23.43764 | 113.56368 | 38047 ft | 496 kts | 192° |
| 2026-05-06 19:19 | 23.36922 | 113.55427 | 38044 ft | 496 kts | 192° |
| 2026-05-06 19:20 | 23.30084 | 113.54453 | 38039 ft | 495 kts | 193° |
| 2026-05-06 19:20 | 23.23245 | 113.53455 | 38049 ft | 495 kts | 193° |
| 2026-05-06 19:21 | 23.16399 | 113.52452 | 38039 ft | 495 kts | 193° |
| 2026-05-06 19:21 | 23.09618 | 113.51460 | 38045 ft | 496 kts | 193° |
| 2026-05-06 19:22 | 23.02759 | 113.50460 | 38045 ft | 496 kts | 193° |
| 2026-05-06 19:22 | 22.95910 | 113.49462 | 38039 ft | 496 kts | 192° |
| 2026-05-06 19:23 | 22.89056 | 113.48499 | 38041 ft | 498 kts | 190° |
| 2026-05-06 19:23 | 22.82102 | 113.48157 | 38041 ft | 502 kts | 186° |
| 2026-05-06 19:24 | 22.75105 | 113.47973 | 38040 ft | 503 kts | 186° |
| 2026-05-06 19:24 | 22.68153 | 113.47815 | 38038 ft | 503 kts | 186° |
| 2026-05-06 19:25 | 22.61155 | 113.47649 | 38040 ft | 503 kts | 186° |
| 2026-05-06 19:25 | 22.54157 | 113.47474 | 38037 ft | 503 kts | 186° |
| 2026-05-06 19:26 | 22.47153 | 113.47296 | 38039 ft | 504 kts | 186° |
| 2026-05-06 19:26 | 22.40144 | 113.47119 | 38038 ft | 504 kts | 186° |
| 2026-05-06 19:27 | 22.33143 | 113.46851 | 38038 ft | 501 kts | 191° |
| 2026-05-06 19:27 | 22.26496 | 113.45027 | 38030 ft | 488 kts | 208° |
| 2026-05-06 19:28 | 22.20891 | 113.41115 | 38038 ft | 476 kts | 227° |
| 2026-05-06 19:28 | 22.16892 | 113.35621 | 38038 ft | 466 kts | 245° |
| 2026-05-06 19:29 | 22.14701 | 113.29134 | 38041 ft | 459 kts | 259° |
| 2026-05-06 19:29 | 22.12949 | 113.22501 | 38035 ft | 463 kts | 251° |
| 2026-05-06 19:30 | 22.10483 | 113.16079 | 38030 ft | 464 kts | 249° |
| 2026-05-06 19:30 | 22.07859 | 113.09719 | 38038 ft | 464 kts | 249° |
| 2026-05-06 19:31 | 22.05197 | 113.03380 | 38031 ft | 463 kts | 249° |
| 2026-05-06 19:31 | 22.01298 | 112.93841 | 38029 ft | 464 kts | 250° |
| 2026-05-06 19:32 | 21.98830 | 112.87408 | 38043 ft | 464 kts | 250° |
| 2026-05-06 19:32 | 21.96352 | 112.80978 | 38029 ft | 465 kts | 250° |
| 2026-05-06 19:33 | 21.93800 | 112.74590 | 38026 ft | 465 kts | 249° |
| 2026-05-06 19:33 | 21.91225 | 112.68246 | 38036 ft | 464 kts | 249° |
| 2026-05-06 19:34 | 21.88639 | 112.61870 | 38024 ft | 464 kts | 249° |
| 2026-05-06 19:34 | 21.86059 | 112.55497 | 38021 ft | 464 kts | 249° |
| 2026-05-06 19:35 | 21.83495 | 112.49112 | 38023 ft | 464 kts | 250° |
| 2026-05-06 19:35 | 21.80971 | 112.42717 | 38025 ft | 465 kts | 250° |
| 2026-05-06 19:36 | 21.78434 | 112.36297 | 38026 ft | 466 kts | 250° |
| 2026-05-06 19:36 | 21.75887 | 112.29886 | 38017 ft | 467 kts | 250° |
| 2026-05-06 19:37 | 21.73328 | 112.23463 | 38018 ft | 467 kts | 250° |
| 2026-05-06 19:37 | 21.71202 | 112.18134 | 38016 ft | 467 kts | 250° |
| 2026-05-06 19:38 | 21.68226 | 112.10685 | 38016 ft | 466 kts | 250° |
| 2026-05-06 19:38 | 21.65665 | 112.04279 | 38014 ft | 466 kts | 250° |
| 2026-05-06 19:39 | 21.63103 | 111.97882 | 38017 ft | 466 kts | 250° |
| 2026-05-06 19:39 | 21.60539 | 111.91486 | 38016 ft | 466 kts | 250° |
| 2026-05-06 19:40 | 21.57926 | 111.85106 | 38008 ft | 468 kts | 246° |
| 2026-05-06 19:40 | 21.54285 | 111.79252 | 38014 ft | 475 kts | 235° |
| 2026-05-06 19:41 | 21.50039 | 111.73789 | 38008 ft | 477 kts | 233° |
| 2026-05-06 19:41 | 21.45703 | 111.68395 | 38005 ft | 477 kts | 233° |
| 2026-05-06 19:42 | 21.41369 | 111.62993 | 38004 ft | 477 kts | 233° |
| 2026-05-06 19:42 | 21.37052 | 111.57584 | 38001 ft | 477 kts | 233° |
| 2026-05-06 19:43 | 21.32739 | 111.52173 | 37994 ft | 477 kts | 233° |
| 2026-05-06 19:43 | 21.28448 | 111.46792 | 37998 ft | 478 kts | 233° |
| 2026-05-06 19:44 | 21.24122 | 111.41375 | 37996 ft | 478 kts | 233° |
| 2026-05-06 19:44 | 21.19796 | 111.35964 | 37996 ft | 478 kts | 233° |
| 2026-05-06 19:45 | 21.15464 | 111.30552 | 37997 ft | 478 kts | 233° |
| 2026-05-06 19:45 | 21.11131 | 111.25143 | 37992 ft | 478 kts | 233° |
| 2026-05-06 19:46 | 21.06823 | 111.19770 | 37985 ft | 478 kts | 233° |
| 2026-05-06 19:46 | 21.02488 | 111.14369 | 37992 ft | 479 kts | 233° |
| 2026-05-06 19:47 | 20.98143 | 111.08961 | 37992 ft | 479 kts | 233° |
| 2026-05-06 19:47 | 20.93798 | 111.03557 | 37989 ft | 479 kts | 233° |
| 2026-05-06 19:48 | 20.89473 | 110.98139 | 37987 ft | 479 kts | 233° |
| 2026-05-06 19:48 | 20.85153 | 110.92717 | 37984 ft | 479 kts | 233° |
| 2026-05-06 19:49 | 20.80829 | 110.87302 | 37984 ft | 479 kts | 233° |
| 2026-05-06 19:49 | 20.76499 | 110.81890 | 37984 ft | 479 kts | 233° |
| 2026-05-06 19:50 | 20.72168 | 110.76483 | 37984 ft | 480 kts | 233° |
| 2026-05-06 19:50 | 20.67819 | 110.71057 | 37981 ft | 480 kts | 233° |
| 2026-05-06 19:51 | 20.63466 | 110.65634 | 37981 ft | 480 kts | 233° |
| 2026-05-06 19:51 | 20.59144 | 110.60253 | 37984 ft | 480 kts | 233° |
| 2026-05-06 19:52 | 20.54792 | 110.54841 | 37983 ft | 480 kts | 233° |
| 2026-05-06 19:52 | 20.50238 | 110.49608 | 37982 ft | 485 kts | 224° |
| 2026-05-06 19:53 | 20.45749 | 110.45972 | 37981 ft | 487 kts | 219° |
| 2026-05-06 19:53 | 20.40159 | 110.41844 | 37979 ft | 489 kts | 218° |
| 2026-05-06 19:54 | 20.34512 | 110.37755 | 37980 ft | 490 kts | 218° |
| 2026-05-06 19:54 | 20.28880 | 110.33659 | 37976 ft | 490 kts | 218° |
| 2026-05-06 19:55 | 20.23261 | 110.29555 | 37972 ft | 489 kts | 218° |
| 2026-05-06 19:55 | 20.17681 | 110.25477 | 37980 ft | 489 kts | 218° |
| 2026-05-06 19:56 | 20.12069 | 110.21379 | 37981 ft | 489 kts | 218° |
| 2026-05-06 19:56 | 20.06458 | 110.17286 | 37974 ft | 489 kts | 218° |
| 2026-05-06 19:57 | 20.00707 | 110.13398 | 37977 ft | 493 kts | 210° |
| 2026-05-06 19:57 | 19.94509 | 110.10239 | 37968 ft | 494 kts | 208° |
| 2026-05-06 19:58 | 19.88235 | 110.07219 | 37971 ft | 494 kts | 207° |
| 2026-05-06 19:58 | 19.82000 | 110.04240 | 37968 ft | 494 kts | 207° |
| 2026-05-06 19:59 | 19.75734 | 110.01230 | 37967 ft | 494 kts | 208° |
| 2026-05-06 19:59 | 19.69474 | 109.98215 | 37968 ft | 494 kts | 208° |
| 2026-05-06 20:00 | 19.63217 | 109.95201 | 37967 ft | 494 kts | 207° |
| 2026-05-06 20:00 | 19.56957 | 109.92189 | 37973 ft | 493 kts | 207° |
| 2026-05-06 20:01 | 19.50702 | 109.89183 | 37970 ft | 493 kts | 207° |
| 2026-05-06 20:01 | 19.44481 | 109.86196 | 37976 ft | 493 kts | 207° |
| 2026-05-06 20:02 | 19.38217 | 109.83223 | 37975 ft | 493 kts | 207° |
| 2026-05-06 20:02 | 19.31956 | 109.80232 | 37980 ft | 493 kts | 207° |
| 2026-05-06 20:03 | 19.25702 | 109.77257 | 37981 ft | 492 kts | 207° |
| 2026-05-06 20:03 | 19.19470 | 109.74253 | 37993 ft | 492 kts | 208° |
| 2026-05-06 20:04 | 19.13266 | 109.71180 | 37994 ft | 492 kts | 208° |
| 2026-05-06 20:04 | 19.07041 | 109.68165 | 38000 ft | 492 kts | 207° |
| 2026-05-06 20:05 | 19.00846 | 109.65198 | 38003 ft | 492 kts | 207° |
| 2026-05-06 20:05 | 18.94611 | 109.62215 | 38008 ft | 492 kts | 207° |
| 2026-05-06 20:06 | 18.88375 | 109.59228 | 38008 ft | 492 kts | 207° |
| 2026-05-06 20:06 | 18.82139 | 109.56241 | 38007 ft | 492 kts | 207° |
| 2026-05-06 20:07 | 18.75891 | 109.53253 | 38011 ft | 492 kts | 207° |
| 2026-05-06 20:07 | 18.69646 | 109.50268 | 38002 ft | 493 kts | 207° |
| 2026-05-06 20:08 | 18.63398 | 109.47285 | 37999 ft | 493 kts | 207° |
| 2026-05-06 20:08 | 18.57145 | 109.44302 | 37982 ft | 493 kts | 207° |
| 2026-05-06 20:09 | 18.51045 | 109.41131 | 37973 ft | 490 kts | 215° |
| 2026-05-06 20:09 | 18.45909 | 109.36521 | 37965 ft | 483 kts | 230° |
| 2026-05-06 20:10 | 18.41567 | 109.31126 | 37963 ft | 483 kts | 233° |
| 2026-05-06 20:10 | 18.37351 | 109.25617 | 37959 ft | 484 kts | 233° |
| 2026-05-06 20:11 | 18.32393 | 109.20803 | 37960 ft | 489 kts | 216° |
| 2026-05-06 20:11 | 18.26177 | 109.17838 | 37967 ft | 496 kts | 197° |
| 2026-05-06 20:12 | 18.22760 | 109.17233 | 37965 ft | 500 kts | 186° |
| 2026-05-06 20:12 | 18.19275 | 109.17050 | 37964 ft | 502 kts | 184° |
| 2026-05-06 20:12 | 18.12281 | 109.16976 | 37953 ft | 503 kts | 182° |
| 2026-05-06 20:13 | 18.05329 | 109.16964 | 37959 ft | 503 kts | 182° |
| 2026-05-06 20:13 | 17.98329 | 109.16909 | 37959 ft | 503 kts | 183° |
| 2026-05-06 20:14 | 17.91326 | 109.16822 | 37959 ft | 503 kts | 183° |
| 2026-05-06 20:14 | 17.84321 | 109.16728 | 37959 ft | 503 kts | 183° |
| 2026-05-06 20:15 | 17.77322 | 109.16635 | 37959 ft | 503 kts | 183° |
| 2026-05-06 20:15 | 17.70313 | 109.16544 | 37959 ft | 503 kts | 183° |
| 2026-05-06 20:16 | 17.63308 | 109.16463 | 37959 ft | 503 kts | 183° |
| 2026-05-06 20:16 | 17.56347 | 109.16395 | 37959 ft | 503 kts | 183° |
| 2026-05-06 20:17 | 17.49360 | 109.16870 | 37956 ft | 507 kts | 170° |
| 2026-05-06 20:17 | 17.42560 | 109.18893 | 37956 ft | 508 kts | 164° |
| 2026-05-06 20:18 | 17.35841 | 109.21239 | 37960 ft | 508 kts | 163° |
| 2026-05-06 20:18 | 17.29137 | 109.23617 | 37959 ft | 508 kts | 163° |
| 2026-05-06 20:19 | 17.22430 | 109.25966 | 37959 ft | 508 kts | 163° |
| 2026-05-06 20:19 | 17.15756 | 109.28283 | 37959 ft | 508 kts | 163° |
| 2026-05-06 20:20 | 17.09040 | 109.30607 | 37959 ft | 508 kts | 163° |
| 2026-05-06 20:20 | 17.02333 | 109.32928 | 37960 ft | 508 kts | 163° |
| 2026-05-06 20:21 | 16.95620 | 109.35250 | 37959 ft | 508 kts | 163° |
| 2026-05-06 20:21 | 16.88913 | 109.37568 | 37960 ft | 508 kts | 163° |
| 2026-05-06 20:22 | 16.82033 | 109.38992 | 37960 ft | 503 kts | 180° |
| 2026-05-06 20:22 | 16.75084 | 109.38568 | 37958 ft | 501 kts | 188° |
| 2026-05-06 20:23 | 16.68155 | 109.37704 | 37959 ft | 501 kts | 189° |
| 2026-05-06 20:23 | 16.61228 | 109.36792 | 37960 ft | 502 kts | 189° |
| 2026-05-06 20:24 | 16.54298 | 109.35911 | 37961 ft | 502 kts | 189° |
| 2026-05-06 20:24 | 16.47358 | 109.35052 | 37960 ft | 502 kts | 189° |
| 2026-05-06 20:25 | 16.40420 | 109.34198 | 37960 ft | 503 kts | 189° |
| 2026-05-06 20:25 | 16.33513 | 109.33349 | 37958 ft | 503 kts | 189° |
| 2026-05-06 20:26 | 16.26561 | 109.32494 | 37959 ft | 503 kts | 189° |
| 2026-05-06 20:26 | 16.19561 | 109.31632 | 37960 ft | 503 kts | 189° |
| 2026-05-06 20:27 | 16.12658 | 109.30784 | 37959 ft | 503 kts | 189° |
| 2026-05-06 20:27 | 16.05715 | 109.29931 | 37958 ft | 502 kts | 188° |
| 2026-05-06 20:28 | 15.98785 | 109.29081 | 37958 ft | 501 kts | 188° |
| 2026-05-06 20:28 | 15.91852 | 109.28230 | 37959 ft | 501 kts | 188° |
| 2026-05-06 20:29 | 15.84925 | 109.27381 | 37959 ft | 501 kts | 188° |
| 2026-05-06 20:29 | 15.77995 | 109.26532 | 37958 ft | 500 kts | 189° |
| 2026-05-06 20:30 | 15.67668 | 109.25269 | 37959 ft | 497 kts | 189° |
| 2026-05-06 20:31 | 15.60800 | 109.24429 | 37956 ft | 497 kts | 189° |
| 2026-05-06 20:31 | 15.53932 | 109.23590 | 37956 ft | 497 kts | 189° |
| 2026-05-06 20:32 | 15.47113 | 109.22748 | 37956 ft | 496 kts | 189° |
| 2026-05-06 20:32 | 15.40249 | 109.21901 | 37957 ft | 496 kts | 189° |
| 2026-05-06 20:33 | 15.33397 | 109.21059 | 37958 ft | 496 kts | 189° |
| 2026-05-06 20:33 | 15.26546 | 109.20218 | 37959 ft | 496 kts | 189° |
| 2026-05-06 20:34 | 15.19703 | 109.19379 | 37963 ft | 496 kts | 189° |
| 2026-05-06 20:34 | 15.12852 | 109.18540 | 37961 ft | 495 kts | 189° |
| 2026-05-06 20:35 | 15.06016 | 109.17703 | 37961 ft | 494 kts | 189° |
| 2026-05-06 20:35 | 14.99191 | 109.16867 | 37962 ft | 493 kts | 189° |
| 2026-05-06 20:36 | 14.92371 | 109.16033 | 37965 ft | 493 kts | 189° |
| 2026-05-06 20:36 | 14.85544 | 109.15198 | 37965 ft | 493 kts | 189° |
| 2026-05-06 20:37 | 14.78770 | 109.14370 | 37931 ft | 491 kts | 189° |
| 2026-05-06 20:37 | 14.72015 | 109.13547 | 37869 ft | 492 kts | 189° |
| 2026-05-06 20:38 | 14.65198 | 109.12714 | 37868 ft | 493 kts | 189° |
| 2026-05-06 20:38 | 14.58368 | 109.11882 | 37881 ft | 493 kts | 189° |
| 2026-05-06 20:39 | 14.52707 | 109.11192 | 37880 ft | 491 kts | 189° |
| 2026-05-06 20:39 | 14.45925 | 109.10367 | 37879 ft | 491 kts | 189° |
| 2026-05-06 20:40 | 14.39143 | 109.09541 | 37872 ft | 490 kts | 189° |
| 2026-05-06 20:40 | 14.32357 | 109.08716 | 37879 ft | 491 kts | 189° |
| 2026-05-06 20:41 | 14.25576 | 109.07892 | 37881 ft | 491 kts | 189° |
| 2026-05-06 20:41 | 14.18795 | 109.07068 | 37879 ft | 491 kts | 189° |
| 2026-05-06 20:42 | 14.12019 | 109.06244 | 37885 ft | 491 kts | 188° |
| 2026-05-06 20:42 | 14.05236 | 109.05422 | 37880 ft | 491 kts | 188° |
| 2026-05-06 20:43 | 13.98486 | 109.04387 | 37882 ft | 489 kts | 196° |
| 2026-05-06 20:43 | 13.92263 | 109.01720 | 37885 ft | 484 kts | 213° |
| 2026-05-06 20:44 | 13.86651 | 108.97898 | 37896 ft | 484 kts | 216° |
| 2026-05-06 20:44 | 13.81182 | 108.93929 | 37895 ft | 484 kts | 217° |
| 2026-05-06 20:45 | 13.75659 | 108.89920 | 37896 ft | 488 kts | 216° |
| 2026-05-06 20:45 | 13.70081 | 108.85914 | 37895 ft | 489 kts | 216° |
| 2026-05-06 20:46 | 13.64498 | 108.81925 | 37899 ft | 489 kts | 216° |
| 2026-05-06 20:46 | 13.58898 | 108.77930 | 37900 ft | 489 kts | 216° |
| 2026-05-06 20:47 | 13.53305 | 108.73940 | 37897 ft | 489 kts | 216° |
| 2026-05-06 20:47 | 13.47755 | 108.69981 | 37898 ft | 488 kts | 216° |
| 2026-05-06 20:48 | 13.42171 | 108.66000 | 37890 ft | 488 kts | 216° |
| 2026-05-06 20:48 | 13.36592 | 108.62025 | 37894 ft | 488 kts | 216° |
| 2026-05-06 20:49 | 13.31015 | 108.58055 | 37896 ft | 488 kts | 216° |
| 2026-05-06 20:49 | 13.25444 | 108.54094 | 37899 ft | 488 kts | 216° |
| 2026-05-06 20:50 | 13.19871 | 108.50117 | 37901 ft | 488 kts | 216° |
| 2026-05-06 20:50 | 13.14287 | 108.46136 | 37899 ft | 487 kts | 216° |
| 2026-05-06 20:51 | 13.08757 | 108.42200 | 37902 ft | 486 kts | 216° |
| 2026-05-06 20:51 | 13.03186 | 108.38237 | 37902 ft | 486 kts | 216° |
| 2026-05-06 20:52 | 12.97624 | 108.34283 | 37899 ft | 486 kts | 216° |
| 2026-05-06 20:52 | 12.92065 | 108.30333 | 37907 ft | 486 kts | 216° |
| 2026-05-06 20:53 | 12.86506 | 108.26386 | 37903 ft | 486 kts | 216° |
| 2026-05-06 20:53 | 12.80941 | 108.22436 | 37903 ft | 486 kts | 216° |
| 2026-05-06 20:54 | 12.75376 | 108.18489 | 37905 ft | 487 kts | 216° |
| 2026-05-06 20:54 | 12.69815 | 108.14547 | 37905 ft | 487 kts | 216° |
| 2026-05-06 20:55 | 12.64544 | 108.10276 | 37907 ft | 485 kts | 223° |
| 2026-05-06 20:55 | 12.59560 | 108.05623 | 37903 ft | 485 kts | 224° |
| 2026-05-06 20:56 | 12.54622 | 108.00915 | 37897 ft | 485 kts | 224° |
| 2026-05-06 20:56 | 12.49681 | 107.96206 | 37899 ft | 485 kts | 223° |
| 2026-05-06 20:57 | 12.44733 | 107.91511 | 37909 ft | 484 kts | 223° |
| 2026-05-06 20:57 | 12.39790 | 107.86829 | 37908 ft | 484 kts | 223° |
| 2026-05-06 20:58 | 12.34845 | 107.82148 | 37908 ft | 484 kts | 223° |
| 2026-05-06 20:58 | 12.29891 | 107.77465 | 37915 ft | 484 kts | 223° |
| 2026-05-06 20:59 | 12.24942 | 107.72795 | 37910 ft | 484 kts | 224° |
| 2026-05-06 20:59 | 12.19976 | 107.68110 | 37912 ft | 486 kts | 224° |
| 2026-05-06 21:00 | 12.15032 | 107.63447 | 37918 ft | 486 kts | 224° |
| 2026-05-06 21:00 | 12.10058 | 107.58762 | 37915 ft | 486 kts | 224° |
| 2026-05-06 21:01 | 12.04600 | 107.54749 | 37913 ft | 488 kts | 208° |
| 2026-05-06 21:01 | 11.98170 | 107.52554 | 37900 ft | 490 kts | 191° |
| 2026-05-06 21:01 | 11.94785 | 107.52030 | 37351 ft | 483 kts | 189° |
| 2026-05-06 21:02 | 11.91446 | 107.51569 | 36424 ft | 486 kts | 188° |
| 2026-05-06 21:02 | 11.88132 | 107.51114 | 35528 ft | 488 kts | 188° |
| 2026-05-06 21:02 | 11.84760 | 107.50647 | 34636 ft | 490 kts | 188° |
| 2026-05-06 21:02 | 11.81371 | 107.50174 | 33837 ft | 490 kts | 188° |
| 2026-05-06 21:03 | 11.77994 | 107.49701 | 32918 ft | 490 kts | 188° |
| 2026-05-06 21:03 | 11.74612 | 107.49225 | 31958 ft | 491 kts | 187° |
| 2026-05-06 21:03 | 11.71220 | 107.48749 | 31022 ft | 492 kts | 187° |
| 2026-05-06 21:03 | 11.67824 | 107.48271 | 30213 ft | 490 kts | 187° |
| 2026-05-06 21:04 | 11.64451 | 107.47796 | 29442 ft | 486 kts | 187° |
| 2026-05-06 21:04 | 11.61120 | 107.47327 | 28611 ft | 482 kts | 187° |
| 2026-05-06 21:04 | 11.57815 | 107.46862 | 27778 ft | 478 kts | 187° |
| 2026-05-06 21:04 | 11.54569 | 107.46405 | 27001 ft | 474 kts | 187° |
| 2026-05-06 21:05 | 11.51315 | 107.45948 | 26258 ft | 470 kts | 187° |
| 2026-05-06 21:05 | 11.48087 | 107.45494 | 25489 ft | 467 kts | 187° |
| 2026-05-06 21:05 | 11.44877 | 107.45043 | 24717 ft | 464 kts | 187° |
| 2026-05-06 21:05 | 11.41687 | 107.44594 | 24019 ft | 461 kts | 187° |
| 2026-05-06 21:06 | 11.38518 | 107.44149 | 23287 ft | 457 kts | 187° |
| 2026-05-06 21:06 | 11.35382 | 107.43708 | 22463 ft | 453 kts | 187° |
| 2026-05-06 21:06 | 11.32278 | 107.43272 | 21727 ft | 447 kts | 187° |
| 2026-05-06 21:06 | 11.29213 | 107.42842 | 20992 ft | 442 kts | 187° |
| 2026-05-06 21:07 | 11.26187 | 107.42417 | 20266 ft | 437 kts | 187° |
| 2026-05-06 21:07 | 11.23196 | 107.41997 | 19551 ft | 432 kts | 187° |
| 2026-05-06 21:07 | 11.20225 | 107.41580 | 18923 ft | 425 kts | 187° |
| 2026-05-06 21:07 | 11.17371 | 107.41179 | 18608 ft | 411 kts | 187° |
| 2026-05-06 21:08 | 11.14589 | 107.40788 | 18344 ft | 396 kts | 187° |
| 2026-05-06 21:08 | 11.11903 | 107.40411 | 18091 ft | 382 kts | 187° |
| 2026-05-06 21:08 | 11.09316 | 107.40048 | 17812 ft | 369 kts | 187° |
| 2026-05-06 21:08 | 11.06815 | 107.39698 | 17540 ft | 356 kts | 187° |
| 2026-05-06 21:09 | 11.04402 | 107.39338 | 17284 ft | 345 kts | 189° |
| 2026-05-06 21:09 | 11.02199 | 107.38470 | 16905 ft | 339 kts | 213° |
| 2026-05-06 21:09 | 11.00573 | 107.36763 | 16424 ft | 337 kts | 238° |
| 2026-05-06 21:09 | 10.99741 | 107.34553 | 15946 ft | 335 kts | 255° |
| 2026-05-06 21:10 | 10.99191 | 107.32258 | 15445 ft | 333 kts | 256° |
| 2026-05-06 21:10 | 10.98621 | 107.29978 | 14969 ft | 331 kts | 255° |
| 2026-05-06 21:10 | 10.98015 | 107.27724 | 14502 ft | 329 kts | 254° |
| 2026-05-06 21:10 | 10.97232 | 107.25546 | 13997 ft | 328 kts | 239° |
| 2026-05-06 21:11 | 10.95705 | 107.23875 | 13492 ft | 322 kts | 211° |
| 2026-05-06 21:11 | 10.93657 | 107.23126 | 12970 ft | 315 kts | 183° |
| 2026-05-06 21:11 | 10.91501 | 107.23307 | 12461 ft | 309 kts | 167° |
| 2026-05-06 21:11 | 10.89396 | 107.23733 | 11990 ft | 307 kts | 167° |
| 2026-05-06 21:12 | 10.87298 | 107.24110 | 11491 ft | 306 kts | 171° |
| 2026-05-06 21:12 | 10.85176 | 107.24066 | 11057 ft | 306 kts | 185° |
| 2026-05-06 21:12 | 10.83075 | 107.23735 | 10853 ft | 305 kts | 187° |
| 2026-05-06 21:12 | 10.80976 | 107.23369 | 10838 ft | 306 kts | 187° |
| 2026-05-06 21:13 | 10.78884 | 107.23003 | 10834 ft | 305 kts | 187° |
| 2026-05-06 21:13 | 10.76794 | 107.22602 | 10836 ft | 306 kts | 192° |
| 2026-05-06 21:13 | 10.74830 | 107.21828 | 10840 ft | 308 kts | 204° |
| 2026-05-06 21:13 | 10.72929 | 107.20820 | 10835 ft | 308 kts | 206° |
| 2026-05-06 21:14 | 10.71035 | 107.19787 | 10837 ft | 308 kts | 206° |
| 2026-05-06 21:14 | 10.69141 | 107.18760 | 10834 ft | 309 kts | 206° |
| 2026-05-06 21:14 | 10.67265 | 107.17686 | 10828 ft | 310 kts | 212° |
| 2026-05-06 21:14 | 10.65643 | 107.16234 | 10835 ft | 311 kts | 225° |
| 2026-05-06 21:15 | 10.64175 | 107.14618 | 10834 ft | 312 kts | 226° |
| 2026-05-06 21:15 | 10.62719 | 107.12983 | 10834 ft | 312 kts | 226° |
| 2026-05-06 21:15 | 10.61260 | 107.11355 | 10834 ft | 312 kts | 226° |
| 2026-05-06 21:15 | 10.59793 | 107.09725 | 10836 ft | 312 kts | 226° |
| 2026-05-06 21:16 | 10.58494 | 107.07964 | 10829 ft | 314 kts | 241° |
| 2026-05-06 21:16 | 10.57606 | 107.05943 | 10837 ft | 313 kts | 248° |
| 2026-05-06 21:16 | 10.56815 | 107.03876 | 10829 ft | 313 kts | 248° |
| 2026-05-06 21:16 | 10.56035 | 107.01831 | 10830 ft | 313 kts | 248° |
| 2026-05-06 21:17 | 10.55433 | 106.99707 | 10824 ft | 314 kts | 263° |
| 2026-05-06 21:17 | 10.55708 | 106.97532 | 10829 ft | 312 kts | 293° |
| 2026-05-06 21:17 | 10.56964 | 106.95786 | 10830 ft | 307 kts | 323° |
| 2026-05-06 21:17 | 10.58869 | 106.94901 | 10829 ft | 301 kts | 353° |
| 2026-05-06 21:18 | 10.60913 | 106.94946 | 10488 ft | 292 kts | 12° |
| 2026-05-06 21:18 | 10.62954 | 106.95075 | 9926 ft | 297 kts | 358° |
| 2026-05-06 21:18 | 10.65003 | 106.94798 | 9432 ft | 296 kts | 353° |
| 2026-05-06 21:18 | 10.67036 | 106.94764 | 8887 ft | 291 kts | 13° |
| 2026-05-06 21:19 | 10.68934 | 106.95407 | 8409 ft | 286 kts | 25° |
| 2026-05-06 21:19 | 10.70720 | 106.96233 | 8097 ft | 276 kts | 27° |
| 2026-05-06 21:19 | 10.72426 | 106.97047 | 7888 ft | 265 kts | 27° |
| 2026-05-06 21:19 | 10.74080 | 106.97838 | 7564 ft | 260 kts | 27° |
| 2026-05-06 21:20 | 10.75714 | 106.98621 | 7165 ft | 258 kts | 27° |
| 2026-05-06 21:20 | 10.76786 | 106.99135 | 6921 ft | 257 kts | 27° |
| 2026-05-06 21:20 | 10.78939 | 107.00169 | 6410 ft | 255 kts | 27° |
| 2026-05-06 21:20 | 10.80535 | 107.00937 | 6088 ft | 253 kts | 27° |
| 2026-05-06 21:21 | 10.82126 | 107.01703 | 6005 ft | 253 kts | 27° |
| 2026-05-06 21:21 | 10.83688 | 107.02452 | 5753 ft | 249 kts | 27° |
| 2026-05-06 21:21 | 10.85261 | 107.03219 | 5289 ft | 251 kts | 27° |
| 2026-05-06 21:21 | 10.86831 | 107.03998 | 4870 ft | 251 kts | 27° |
| 2026-05-06 21:22 | 10.88402 | 107.04782 | 4451 ft | 251 kts | 27° |
| 2026-05-06 21:22 | 10.89986 | 107.05518 | 4103 ft | 253 kts | 21° |
| 2026-05-06 21:22 | 10.91773 | 107.05853 | 4011 ft | 269 kts | 1° |
| 2026-05-06 21:22 | 10.93593 | 107.05390 | 4000 ft | 276 kts | 332° |
| 2026-05-06 21:23 | 10.94939 | 107.04018 | 3999 ft | 278 kts | 298° |
| 2026-05-06 21:23 | 10.95361 | 107.02125 | 3997 ft | 277 kts | 265° |
| 2026-05-06 21:23 | 10.94731 | 107.00311 | 4002 ft | 274 kts | 233° |
| 2026-05-06 21:23 | 10.93505 | 106.98827 | 3998 ft | 274 kts | 226° |
| 2026-05-06 21:24 | 10.92248 | 106.97378 | 3994 ft | 268 kts | 229° |
| 2026-05-06 21:24 | 10.91096 | 106.95950 | 3995 ft | 257 kts | 230° |
| 2026-05-06 21:24 | 10.90003 | 106.94526 | 3998 ft | 255 kts | 231° |
| 2026-05-06 21:24 | 10.88921 | 106.93109 | 3998 ft | 252 kts | 226° |
| 2026-05-06 21:25 | 10.87843 | 106.91693 | 3995 ft | 254 kts | 235° |
| 2026-05-06 21:25 | 10.87171 | 106.90037 | 3994 ft | 256 kts | 262° |
| 2026-05-06 21:25 | 10.87204 | 106.88258 | 3947 ft | 246 kts | 276° |
| 2026-05-06 21:25 | 10.87426 | 106.86576 | 3810 ft | 234 kts | 278° |
| 2026-05-06 21:26 | 10.87649 | 106.84972 | 3668 ft | 224 kts | 277° |
| 2026-05-06 21:26 | 10.87785 | 106.83954 | 3584 ft | 217 kts | 277° |
| 2026-05-06 21:26 | 10.87922 | 106.81974 | 3391 ft | 204 kts | 264° |
| 2026-05-06 21:26 | 10.87560 | 106.80657 | 3309 ft | 189 kts | 245° |
| 2026-05-06 21:27 | 10.87060 | 106.79463 | 3137 ft | 180 kts | 247° |
| 2026-05-06 21:27 | 10.86624 | 106.78313 | 3010 ft | 168 kts | 248° |
| 2026-05-06 21:27 | 10.86223 | 106.77225 | 2794 ft | 162 kts | 248° |
| 2026-05-06 21:27 | 10.85955 | 106.76499 | 2619 ft | 161 kts | 247° |
| 2026-05-06 21:28 | 10.85560 | 106.75436 | 2327 ft | 161 kts | 246° |
| 2026-05-06 21:28 | 10.85140 | 106.74383 | 1993 ft | 162 kts | 243° |
| 2026-05-06 21:28 | 10.84691 | 106.73322 | 1642 ft | 165 kts | 239° |
| 2026-05-06 21:28 | 10.84248 | 106.72233 | 1306 ft | 169 kts | 244° |
| 2026-05-06 21:29 | 10.83860 | 106.71121 | 1048 ft | 165 kts | 244° |
| 2026-05-06 21:29 | 10.83502 | 106.70031 | 773 ft | 160 kts | 249° |
| 2026-05-06 21:29 | 10.83159 | 106.68992 | 579 ft | 151 kts | 247° |
| 2026-05-06 21:29 | 10.82771 | 106.68008 | 294 ft | 147 kts | 244° |
| 2026-05-06 21:30 | 10.82396 | 106.67069 | 95 ft | 139 kts | 245° |
| 2026-05-06 21:30 | 10.82071 | 106.66202 | 43 ft | 117 kts | 250° |
| 2026-05-06 21:30 | 10.81834 | 106.65544 | 43 ft | 86 kts | 250° |
| 2026-05-06 21:30 | 10.81649 | 106.65047 | 46 ft | 66 kts | 246° |
| 2026-05-06 21:31 | 10.81501 | 106.64648 | 46 ft | 45 kts | 248° |
| 2026-05-06 21:31 | 10.81388 | 106.64355 | 44 ft | 45 kts | 250° |
| 2026-05-06 21:31 | 10.81271 | 106.64046 | 39 ft | 46 kts | 248° |
| 2026-05-06 21:31 | 10.81196 | 106.63847 | 37 ft | 22 kts | 250° |
| 2026-05-06 21:32 | 10.81130 | 106.63784 | 39 ft | 14 kts | 177° |
| 2026-05-06 21:32 | 10.80931 | 106.63871 | 43 ft | 17 kts | 118° |
| 2026-05-06 21:32 | 10.80961 | 106.63991 | 42 ft | 20 kts | 66° |
| 2026-05-06 21:33 | 10.81015 | 106.64139 | 40 ft | 24 kts | 68° |
| 2026-05-06 21:33 | 10.81083 | 106.64309 | 41 ft | 27 kts | 70° |
| 2026-05-06 21:33 | 10.81155 | 106.64495 | 44 ft | 29 kts | 69° |
| 2026-05-06 21:33 | 10.81225 | 106.64695 | 44 ft | 32 kts | 69° |
| 2026-05-06 21:34 | 10.81285 | 106.64854 | 44 ft | 22 kts | 69° |
| 2026-05-06 21:34 | 10.81347 | 106.65012 | 44 ft | 26 kts | 68° |
| 2026-05-06 21:34 | 10.81394 | 106.65135 | 43 ft | 17 kts | 68° |
| 2026-05-06 21:34 | 10.81440 | 106.65258 | 43 ft | 20 kts | 68° |
| 2026-05-06 21:35 | 10.81476 | 106.65354 | 43 ft | 12 kts | 70° |
| 2026-05-06 21:35 | 10.81499 | 106.65424 | 43 ft | 7 kts | 84° |
| 2026-05-06 21:35 | 10.81471 | 106.65449 | 43 ft | 6 kts | 172° |
| 2026-05-06 21:35 | 10.81421 | 106.65469 | 43 ft | 8 kts | 153° |
| 2026-05-06 21:36 | 10.81381 | 106.65502 | 43 ft | 8 kts | 144° |
| 2026-05-06 21:36 | 10.81358 | 106.65515 | 43 ft | 3 kts | 159° |
| 2026-05-06 21:36 | 10.81343 | 106.65522 | 43 ft | 5 kts | 155° |
| 2026-05-06 21:36 | 10.81338 | 106.65525 | 43 ft | 0 kts | 157° |